Trade Center, Virginia
Current Conditions -  °F | °C
As of 5:52 PM on Thursday 23 Oct 2014 (Local Time) from KDCA Reporting Station
Broken Clouds Broken Clouds  
Wind Chill: 65°   Ceiling: 5500
Heat Index: 65°   Visibility: 10mi
Dew Point: 44°   Wind: 10mph
Humidity: 47%   Direction: 300°WNW
Pressure: 29.87"   Gusts: NA
Location:  38.8134°N, 77.1153°W
Report Text: KDCA 232152Z 30009KT 10SM BKN055 18/07 A2987 RMK AO2 SLP112 T01830067
Loading
Personal Weather Stations






























Interactive Weather Map
Tropical Storm Tracking
New forecast layout! Learn more

10-Day Weather Forecast

Advertisements
Track Severe Weather on mobile